Terminal Aerodrome Forecast
Issued by NWS

Current Version | Previous Version | Graphics & Text | Print | Product List | Glossary On
Versions: 1 2 3 4 5 6 7 8 9 10 11 12 13 14 15 16 17 18 19 20
256
FTUS41 KPBZ 192339
TAFMGW
TAF
KMGW 192339Z 2000/2024 00000KT P6SM SKC
     FM200600 VRB02KT 4SM BR FEW050
     FM200800 VRB02KT 1SM BR SCT002
     FM201300 00000KT 4SM BR FEW050
     FM201400 30004KT P6SM SCT050=

USA.gov is the U.S. government's official web portal to all federal, state and local government web resources and services.